sensor_id;sensor_type;location;lat;lon;timestamp;pressure;altitude;pressure_sealevel;temperature;humidity
61963;BME280;47927;42.646;23.096;2023-07-29T00:01:50;92107.59;;;17.13;51.92
61963;BME280;47927;42.646;23.096;2023-07-29T00:04:16;92101.44;;;17.00;52.37
61963;BME280;47927;42.646;23.096;2023-07-29T00:06:42;92113.63;;;17.14;52.20
61963;BME280;47927;42.646;23.096;2023-07-29T00:09:07;92110.50;;;17.22;52.00
61963;BME280;47927;42.646;23.096;2023-07-29T00:11:33;92109.00;;;17.21;52.03
61963;BME280;47927;42.646;23.096;2023-07-29T00:14:01;92107.00;;;17.29;51.75
61963;BME280;47927;42.646;23.096;2023-07-29T00:16:27;92110.81;;;17.24;52.35
61963;BME280;47927;42.646;23.096;2023-07-29T00:18:53;92110.53;;;17.19;52.49
61963;BME280;47927;42.646;23.096;2023-07-29T00:21:19;92102.34;;;17.13;52.39
61963;BME280;47927;42.646;23.096;2023-07-29T00:23:45;92101.72;;;17.05;52.72
61963;BME280;47927;42.646;23.096;2023-07-29T00:26:10;92095.78;;;17.01;52.74
61963;BME280;47927;42.646;23.096;2023-07-29T00:28:36;92094.75;;;16.95;52.98
61963;BME280;47927;42.646;23.096;2023-07-29T00:31:02;92092.53;;;16.94;53.01
61963;BME280;47927;42.646;23.096;2023-07-29T00:33:27;92090.34;;;16.89;53.02
61963;BME280;47927;42.646;23.096;2023-07-29T00:35:53;92094.13;;;16.88;52.71
61963;BME280;47927;42.646;23.096;2023-07-29T00:38:18;92088.94;;;16.80;53.08
61963;BME280;47927;42.646;23.096;2023-07-29T00:41:02;92097.25;;;16.79;53.24
61963;BME280;47927;42.646;23.096;2023-07-29T00:43:29;92094.66;;;16.75;53.26
61963;BME280;47927;42.646;23.096;2023-07-29T00:45:55;92087.31;;;16.63;53.14
61963;BME280;47927;42.646;23.096;2023-07-29T00:48:23;92091.00;;;16.69;53.45
61963;BME280;47927;42.646;23.096;2023-07-29T00:50:49;92092.13;;;16.68;53.23
61963;BME280;47927;42.646;23.096;2023-07-29T00:53:16;92100.72;;;16.72;53.02
61963;BME280;47927;42.646;23.096;2023-07-29T00:55:42;92087.63;;;16.69;52.92
61963;BME280;47927;42.646;23.096;2023-07-29T00:58:08;92094.06;;;16.64;53.51
61963;BME280;47927;42.646;23.096;2023-07-29T01:00:33;92089.97;;;16.63;53.37
61963;BME280;47927;42.646;23.096;2023-07-29T01:03:02;92091.88;;;16.59;53.57
61963;BME280;47927;42.646;23.096;2023-07-29T01:06:17;92087.31;;;16.63;53.64
61963;BME280;47927;42.646;23.096;2023-07-29T01:08:27;92093.72;;;16.62;53.82
61963;BME280;47927;42.646;23.096;2023-07-29T01:13:58;92088.56;;;16.55;53.94
61963;BME280;47927;42.646;23.096;2023-07-29T01:16:44;92083.38;;;16.51;53.88
61963;BME280;47927;42.646;23.096;2023-07-29T01:21:57;92079.34;;;16.43;54.39
61963;BME280;47927;42.646;23.096;2023-07-29T01:24:23;92076.31;;;16.45;54.16
61963;BME280;47927;42.646;23.096;2023-07-29T01:26:49;92073.28;;;16.46;54.22
61963;BME280;47927;42.646;23.096;2023-07-29T01:29:14;92077.34;;;16.51;54.15
61963;BME280;47927;42.646;23.096;2023-07-29T01:31:43;92089.38;;;16.52;54.35
61963;BME280;47927;42.646;23.096;2023-07-29T01:34:21;92083.81;;;16.46;54.04
61963;BME280;47927;42.646;23.096;2023-07-29T01:36:51;92088.81;;;16.37;54.36
61963;BME280;47927;42.646;23.096;2023-07-29T01:39:20;92084.19;;;16.45;54.15
61963;BME280;47927;42.646;23.096;2023-07-29T01:41:48;92084.97;;;16.41;54.63
61963;BME280;47927;42.646;23.096;2023-07-29T01:44:14;92077.09;;;16.41;54.38
61963;BME280;47927;42.646;23.096;2023-07-29T01:46:40;92082.72;;;16.44;54.04
61963;BME280;47927;42.646;23.096;2023-07-29T01:49:06;92078.25;;;16.40;54.15
61963;BME280;47927;42.646;23.096;2023-07-29T01:51:31;92076.34;;;16.41;54.51
61963;BME280;47927;42.646;23.096;2023-07-29T01:53:57;92079.44;;;16.36;54.42
61963;BME280;47927;42.646;23.096;2023-07-29T01:56:25;92073.00;;;16.40;54.42
61963;BME280;47927;42.646;23.096;2023-07-29T01:58:53;92083.16;;;16.38;54.28
61963;BME280;47927;42.646;23.096;2023-07-29T02:01:19;92085.09;;;16.34;54.84
61963;BME280;47927;42.646;23.096;2023-07-29T02:03:45;92079.59;;;16.25;54.75
61963;BME280;47927;42.646;23.096;2023-07-29T02:06:11;92075.44;;;16.28;54.86
61963;BME280;47927;42.646;23.096;2023-07-29T02:08:38;92074.63;;;16.31;54.61
61963;BME280;47927;42.646;23.096;2023-07-29T02:11:06;92081.72;;;16.34;54.75
61963;BME280;47927;42.646;23.096;2023-07-29T02:13:32;92088.09;;;16.33;54.53
61963;BME280;47927;42.646;23.096;2023-07-29T02:15:57;92081.44;;;16.28;54.93
61963;BME280;47927;42.646;23.096;2023-07-29T02:18:23;92081.78;;;16.30;54.97
61963;BME280;47927;42.646;23.096;2023-07-29T02:20:48;92079.84;;;16.34;54.66
61963;BME280;47927;42.646;23.096;2023-07-29T02:23:15;92088.09;;;16.33;54.92
61963;BME280;47927;42.646;23.096;2023-07-29T02:25:42;92089.97;;;16.36;54.37
61963;BME280;47927;42.646;23.096;2023-07-29T02:28:08;92081.28;;;16.39;54.74
61963;BME280;47927;42.646;23.096;2023-07-29T02:30:33;92085.34;;;16.44;54.32
61963;BME280;47927;42.646;23.096;2023-07-29T02:32:59;92075.25;;;16.38;54.45
61963;BME280;47927;42.646;23.096;2023-07-29T02:35:27;92072.84;;;16.24;54.79
61963;BME280;47927;42.646;23.096;2023-07-29T02:37:52;92079.94;;;16.27;54.80
61963;BME280;47927;42.646;23.096;2023-07-29T02:40:21;92083.50;;;16.13;55.22
61963;BME280;47927;42.646;23.096;2023-07-29T02:42:48;92085.88;;;16.04;55.67
61963;BME280;47927;42.646;23.096;2023-07-29T02:45:13;92088.50;;;16.04;55.52
61963;BME280;47927;42.646;23.096;2023-07-29T02:47:39;92081.25;;;16.12;55.58
61963;BME280;47927;42.646;23.096;2023-07-29T02:50:05;92087.16;;;16.20;55.14
61963;BME280;47927;42.646;23.096;2023-07-29T02:52:31;92088.66;;;16.21;55.38
61963;BME280;47927;42.646;23.096;2023-07-29T02:54:56;92090.84;;;16.26;55.20
61963;BME280;47927;42.646;23.096;2023-07-29T02:57:22;92096.09;;;16.26;55.22
61963;BME280;47927;42.646;23.096;2023-07-29T03:00:06;92091.25;;;16.24;55.36
61963;BME280;47927;42.646;23.096;2023-07-29T03:02:33;92090.16;;;16.22;55.55
61963;BME280;47927;42.646;23.096;2023-07-29T03:04:59;92095.34;;;16.25;55.25
61963;BME280;47927;42.646;23.096;2023-07-29T03:07:24;92097.56;;;16.27;55.12
61963;BME280;47927;42.646;23.096;2023-07-29T03:09:50;92096.47;;;16.28;55.21
61963;BME280;47927;42.646;23.096;2023-07-29T03:12:16;92100.63;;;16.25;55.17
61963;BME280;47927;42.646;23.096;2023-07-29T03:14:42;92102.19;;;16.19;55.92
61963;BME280;47927;42.646;23.096;2023-07-29T03:17:08;92100.38;;;16.16;55.55
61963;BME280;47927;42.646;23.096;2023-07-29T03:19:33;92086.22;;;16.06;55.81
61963;BME280;47927;42.646;23.096;2023-07-29T03:21:59;92094.75;;;16.14;55.78
61963;BME280;47927;42.646;23.096;2023-07-29T03:24:24;92063.88;;;15.91;55.65
61963;BME280;47927;42.646;23.096;2023-07-29T03:26:50;92095.97;;;16.06;56.27
61963;BME280;47927;42.646;23.096;2023-07-29T03:29:15;92092.91;;;16.11;56.38
61963;BME280;47927;42.646;23.096;2023-07-29T03:31:41;92083.50;;;16.13;56.27
61963;BME280;47927;42.646;23.096;2023-07-29T03:34:06;92088.63;;;16.24;55.83
61963;BME280;47927;42.646;23.096;2023-07-29T03:36:32;92086.31;;;16.26;56.05
61963;BME280;47927;42.646;23.096;2023-07-29T03:38:58;92085.16;;;16.31;56.15
61963;BME280;47927;42.646;23.096;2023-07-29T03:41:24;92094.03;;;16.40;55.52
61963;BME280;47927;42.646;23.096;2023-07-29T03:43:49;92090.28;;;16.38;55.82
61963;BME280;47927;42.646;23.096;2023-07-29T03:46:15;92082.59;;;16.51;55.59
61963;BME280;47927;42.646;23.096;2023-07-29T03:48:45;92084.78;;;16.56;55.81
61963;BME280;47927;42.646;23.096;2023-07-29T03:51:11;92081.50;;;16.75;55.47
61963;BME280;47927;42.646;23.096;2023-07-29T03:53:36;92092.72;;;16.79;55.52
61963;BME280;47927;42.646;23.096;2023-07-29T03:56:02;92088.00;;;16.94;55.40
61963;BME280;47927;42.646;23.096;2023-07-29T03:58:27;92097.56;;;17.08;55.39
61963;BME280;47927;42.646;23.096;2023-07-29T04:00:53;92090.97;;;17.20;55.36
61963;BME280;47927;42.646;23.096;2023-07-29T04:03:19;92084.91;;;17.43;54.70
61963;BME280;47927;42.646;23.096;2023-07-29T04:05:45;92096.09;;;17.70;54.37
61963;BME280;47927;42.646;23.096;2023-07-29T04:08:10;92090.25;;;18.03;53.61
61963;BME280;47927;42.646;23.096;2023-07-29T04:10:36;92097.84;;;18.53;52.48
61963;BME280;47927;42.646;23.096;2023-07-29T04:13:03;92098.72;;;19.16;51.19
61963;BME280;47927;42.646;23.096;2023-07-29T04:15:29;92097.06;;;19.96;49.90
61963;BME280;47927;42.646;23.096;2023-07-29T04:17:55;92097.75;;;21.03;47.30
61963;BME280;47927;42.646;23.096;2023-07-29T04:20:21;92098.28;;;22.46;43.93
61963;BME280;47927;42.646;23.096;2023-07-29T04:22:46;92098.72;;;24.17;39.35
61963;BME280;47927;42.646;23.096;2023-07-29T04:25:12;92097.81;;;26.01;35.09
61963;BME280;47927;42.646;23.096;2023-07-29T04:27:38;92104.53;;;27.21;33.35
61963;BME280;47927;42.646;23.096;2023-07-29T04:30:05;92104.41;;;28.38;31.57
61963;BME280;47927;42.646;23.096;2023-07-29T04:32:31;92107.25;;;28.87;30.40
61963;BME280;47927;42.646;23.096;2023-07-29T04:34:56;92107.94;;;29.62;29.36
61963;BME280;47927;42.646;23.096;2023-07-29T04:37:22;92108.16;;;30.29;28.15
61963;BME280;47927;42.646;23.096;2023-07-29T04:39:47;92113.31;;;30.50;27.82
61963;BME280;47927;42.646;23.096;2023-07-29T04:42:13;92105.50;;;30.63;27.60
61963;BME280;47927;42.646;23.096;2023-07-29T04:44:40;92115.28;;;30.88;27.07
61963;BME280;47927;42.646;23.096;2023-07-29T04:47:07;92122.56;;;31.44;26.35
61963;BME280;47927;42.646;23.096;2023-07-29T04:49:32;92122.13;;;31.01;27.15
61963;BME280;47927;42.646;23.096;2023-07-29T04:51:58;92117.44;;;30.28;27.95
61963;BME280;47927;42.646;23.096;2023-07-29T04:54:23;92112.78;;;29.58;28.83
61963;BME280;47927;42.646;23.096;2023-07-29T04:56:49;92123.59;;;28.94;31.06
61963;BME280;47927;42.646;23.096;2023-07-29T04:59:16;92119.28;;;28.65;31.78
61963;BME280;47927;42.646;23.096;2023-07-29T05:01:42;92123.09;;;28.58;31.73
61963;BME280;47927;42.646;23.096;2023-07-29T05:04:08;92116.44;;;28.48;31.03
61963;BME280;47927;42.646;23.096;2023-07-29T05:06:34;92131.59;;;28.31;31.98
61963;BME280;47927;42.646;23.096;2023-07-29T05:09:15;92134.13;;;28.40;31.46
61963;BME280;47927;42.646;23.096;2023-07-29T05:11:42;92141.94;;;29.33;29.56
61963;BME280;47927;42.646;23.096;2023-07-29T05:14:12;92134.22;;;30.12;29.67
61963;BME280;47927;42.646;23.096;2023-07-29T05:16:38;92135.84;;;30.80;28.99
61963;BME280;47927;42.646;23.096;2023-07-29T05:19:04;92128.69;;;31.50;27.22
61963;BME280;47927;42.646;23.096;2023-07-29T05:21:30;92136.22;;;32.63;25.43
61963;BME280;47927;42.646;23.096;2023-07-29T05:23:55;92144.81;;;34.20;23.60
61963;BME280;47927;42.646;23.096;2023-07-29T05:26:22;92144.13;;;36.01;20.86
61963;BME280;47927;42.646;23.096;2023-07-29T05:28:47;92146.50;;;38.15;18.85
61963;BME280;47927;42.646;23.096;2023-07-29T05:31:13;92148.78;;;39.37;17.55
61963;BME280;47927;42.646;23.096;2023-07-29T05:33:38;92143.66;;;39.26;17.68
61963;BME280;47927;42.646;23.096;2023-07-29T05:36:05;92152.19;;;39.83;17.02
61963;BME280;47927;42.646;23.096;2023-07-29T05:38:31;92157.56;;;40.54;16.37
61963;BME280;47927;42.646;23.096;2023-07-29T05:40:56;92156.16;;;41.61;15.19
61963;BME280;47927;42.646;23.096;2023-07-29T05:43:24;92163.56;;;42.21;14.47
61963;BME280;47927;42.646;23.096;2023-07-29T05:45:49;92157.09;;;43.15;14.28
61963;BME280;47927;42.646;23.096;2023-07-29T05:48:17;92161.78;;;44.46;13.01
61963;BME280;47927;42.646;23.096;2023-07-29T05:50:43;92171.78;;;45.02;12.64
61963;BME280;47927;42.646;23.096;2023-07-29T05:53:09;92174.53;;;45.43;12.29
61963;BME280;47927;42.646;23.096;2023-07-29T05:55:35;92170.91;;;46.69;11.36
61963;BME280;47927;42.646;23.096;2023-07-29T05:58:01;92181.00;;;46.43;11.58
61963;BME280;47927;42.646;23.096;2023-07-29T06:00:26;92176.22;;;46.22;11.79
61963;BME280;47927;42.646;23.096;2023-07-29T06:02:52;92175.44;;;47.10;10.80
61963;BME280;47927;42.646;23.096;2023-07-29T06:05:20;92177.38;;;47.66;10.70
61963;BME280;47927;42.646;23.096;2023-07-29T06:07:46;92175.41;;;47.92;10.25
61963;BME280;47927;42.646;23.096;2023-07-29T06:10:15;92169.63;;;48.37;9.81
61963;BME280;47927;42.646;23.096;2023-07-29T06:12:44;92168.38;;;48.52;8.93
61963;BME280;47927;42.646;23.096;2023-07-29T06:15:10;92176.41;;;47.49;10.55
61963;BME280;47927;42.646;23.096;2023-07-29T06:17:36;92166.34;;;48.52;9.89
61963;BME280;47927;42.646;23.096;2023-07-29T06:20:01;92162.69;;;48.62;10.10
61963;BME280;47927;42.646;23.096;2023-07-29T06:22:28;92163.47;;;49.43;10.02
61963;BME280;47927;42.646;23.096;2023-07-29T06:24:53;92151.28;;;49.34;9.62
61963;BME280;47927;42.646;23.096;2023-07-29T06:27:19;92152.09;;;49.37;10.32
61963;BME280;47927;42.646;23.096;2023-07-29T06:29:44;92149.44;;;49.94;8.77
61963;BME280;47927;42.646;23.096;2023-07-29T06:32:10;92150.16;;;49.67;9.39
61963;BME280;47927;42.646;23.096;2023-07-29T06:34:35;92149.72;;;50.44;8.93
61963;BME280;47927;42.646;23.096;2023-07-29T06:37:02;92153.53;;;49.93;8.86
61963;BME280;47927;42.646;23.096;2023-07-29T06:39:28;92154.78;;;49.62;9.51
61963;BME280;47927;42.646;23.096;2023-07-29T06:41:53;92158.47;;;49.81;9.12
61963;BME280;47927;42.646;23.096;2023-07-29T06:44:19;92158.19;;;50.18;8.92
61963;BME280;47927;42.646;23.096;2023-07-29T06:46:44;92160.25;;;50.47;9.03
61963;BME280;47927;42.646;23.096;2023-07-29T06:49:10;92157.22;;;50.41;8.15
61963;BME280;47927;42.646;23.096;2023-07-29T06:51:35;92162.78;;;49.56;9.03
61963;BME280;47927;42.646;23.096;2023-07-29T06:54:02;92149.78;;;49.05;9.24
61963;BME280;47927;42.646;23.096;2023-07-29T06:56:28;92167.59;;;49.42;9.18
61963;BME280;47927;42.646;23.096;2023-07-29T06:58:53;92162.28;;;50.60;8.24
61963;BME280;47927;42.646;23.096;2023-07-29T07:01:19;92163.13;;;50.79;8.43
61963;BME280;47927;42.646;23.096;2023-07-29T07:03:44;92158.41;;;51.29;7.60
61963;BME280;47927;42.646;23.096;2023-07-29T07:06:10;92153.69;;;51.00;8.40
61963;BME280;47927;42.646;23.096;2023-07-29T07:08:35;92146.22;;;50.43;8.73
61963;BME280;47927;42.646;23.096;2023-07-29T07:11:01;92147.59;;;50.58;9.00
61963;BME280;47927;42.646;23.096;2023-07-29T07:13:27;92153.84;;;51.04;8.20
61963;BME280;47927;42.646;23.096;2023-07-29T07:15:56;92149.97;;;51.75;7.94
61963;BME280;47927;42.646;23.096;2023-07-29T07:18:21;92146.59;;;51.13;8.08
61963;BME280;47927;42.646;23.096;2023-07-29T07:20:49;92142.91;;;50.31;9.07
61963;BME280;47927;42.646;23.096;2023-07-29T07:23:16;92156.22;;;50.21;8.06
61963;BME280;47927;42.646;23.096;2023-07-29T07:25:43;92145.44;;;50.56;9.02
61963;BME280;47927;42.646;23.096;2023-07-29T07:28:09;92142.22;;;50.03;8.45
61963;BME280;47927;42.646;23.096;2023-07-29T07:30:34;92145.84;;;49.78;9.94
61963;BME280;47927;42.646;23.096;2023-07-29T07:33:00;92138.59;;;49.57;9.04
61963;BME280;47927;42.646;23.096;2023-07-29T07:35:26;92142.94;;;50.03;8.13
61963;BME280;47927;42.646;23.096;2023-07-29T07:37:52;92141.69;;;50.06;8.45
61963;BME280;47927;42.646;23.096;2023-07-29T07:40:18;92140.50;;;49.82;8.79
61963;BME280;47927;42.646;23.096;2023-07-29T07:42:43;92130.19;;;49.68;9.57
61963;BME280;47927;42.646;23.096;2023-07-29T07:45:09;92136.00;;;49.75;8.93
61963;BME280;47927;42.646;23.096;2023-07-29T07:47:34;92135.50;;;49.64;9.23
61963;BME280;47927;42.646;23.096;2023-07-29T07:50:00;92133.75;;;49.43;8.68
61963;BME280;47927;42.646;23.096;2023-07-29T07:52:25;92131.13;;;49.59;8.64
61963;BME280;47927;42.646;23.096;2023-07-29T07:54:52;92130.16;;;48.74;9.27
61963;BME280;47927;42.646;23.096;2023-07-29T07:57:20;92135.56;;;47.71;10.07
61963;BME280;47927;42.646;23.096;2023-07-29T07:59:46;92139.03;;;47.96;9.71
61963;BME280;47927;42.646;23.096;2023-07-29T08:02:12;92141.13;;;47.60;9.31
61963;BME280;47927;42.646;23.096;2023-07-29T08:04:37;92141.44;;;47.89;9.70
61963;BME280;47927;42.646;23.096;2023-07-29T08:07:03;92136.19;;;48.19;8.98
61963;BME280;47927;42.646;23.096;2023-07-29T08:09:28;92135.16;;;48.01;9.23
61963;BME280;47927;42.646;23.096;2023-07-29T08:11:54;92132.63;;;48.17;8.81
61963;BME280;47927;42.646;23.096;2023-07-29T08:14:19;92133.44;;;47.82;9.64
61963;BME280;47927;42.646;23.096;2023-07-29T08:16:45;92141.06;;;48.32;8.98
61963;BME280;47927;42.646;23.096;2023-07-29T08:19:11;92139.22;;;47.27;10.20
61963;BME280;47927;42.646;23.096;2023-07-29T08:21:36;92136.44;;;47.62;9.47
61963;BME280;47927;42.646;23.096;2023-07-29T08:24:02;92140.91;;;48.05;9.21
61963;BME280;47927;42.646;23.096;2023-07-29T08:26:28;92142.16;;;47.90;9.41
61963;BME280;47927;42.646;23.096;2023-07-29T08:28:54;92136.16;;;47.93;9.49
61963;BME280;47927;42.646;23.096;2023-07-29T08:31:20;92136.00;;;48.03;9.80
61963;BME280;47927;42.646;23.096;2023-07-29T08:33:45;92130.31;;;48.13;9.49
61963;BME280;47927;42.646;23.096;2023-07-29T08:36:11;92143.78;;;47.58;10.34
61963;BME280;47927;42.646;23.096;2023-07-29T08:38:36;92133.59;;;48.35;9.49
61963;BME280;47927;42.646;23.096;2023-07-29T08:46:22;92128.88;;;48.89;8.16
61963;BME280;47927;42.646;23.096;2023-07-29T08:48:48;92134.34;;;48.61;8.58
61963;BME280;47927;42.646;23.096;2023-07-29T08:51:15;92124.84;;;48.78;8.76
61963;BME280;47927;42.646;23.096;2023-07-29T08:53:42;92122.78;;;48.65;8.62
61963;BME280;47927;42.646;23.096;2023-07-29T08:56:08;92123.63;;;48.81;8.05
61963;BME280;47927;42.646;23.096;2023-07-29T08:58:34;92122.69;;;48.76;7.91
61963;BME280;47927;42.646;23.096;2023-07-29T09:01:00;92123.09;;;47.82;8.51
61963;BME280;47927;42.646;23.096;2023-07-29T09:03:26;92128.78;;;47.14;9.25
61963;BME280;47927;42.646;23.096;2023-07-29T09:05:52;92123.25;;;46.90;8.67
61963;BME280;47927;42.646;23.096;2023-07-29T09:08:19;92123.34;;;46.69;8.83
61963;BME280;47927;42.646;23.096;2023-07-29T09:10:44;92113.19;;;46.95;9.19
61963;BME280;47927;42.646;23.096;2023-07-29T09:13:10;92121.81;;;47.01;8.59
61963;BME280;47927;42.646;23.096;2023-07-29T09:15:36;92109.03;;;46.60;8.58
61963;BME280;47927;42.646;23.096;2023-07-29T09:18:16;92112.59;;;46.40;8.66
61963;BME280;47927;42.646;23.096;2023-07-29T09:20:42;92113.75;;;46.70;9.66
61963;BME280;47927;42.646;23.096;2023-07-29T09:23:09;92120.13;;;46.27;9.95
61963;BME280;47927;42.646;23.096;2023-07-29T09:25:37;92115.94;;;44.58;10.28
61963;BME280;47927;42.646;23.096;2023-07-29T09:28:13;92109.41;;;44.73;10.40
61963;BME280;47927;42.646;23.096;2023-07-29T09:30:40;92109.56;;;44.56;11.00
61963;BME280;47927;42.646;23.096;2023-07-29T09:33:06;92105.03;;;44.10;10.07
61963;BME280;47927;42.646;23.096;2023-07-29T09:35:33;92099.47;;;44.29;10.47
61963;BME280;47927;42.646;23.096;2023-07-29T09:37:59;92103.69;;;44.30;10.76
61963;BME280;47927;42.646;23.096;2023-07-29T09:40:24;92095.75;;;43.86;12.03
61963;BME280;47927;42.646;23.096;2023-07-29T09:42:51;92096.88;;;41.99;12.00
61963;BME280;47927;42.646;23.096;2023-07-29T09:45:27;92094.13;;;41.04;12.18
61963;BME280;47927;42.646;23.096;2023-07-29T09:47:53;92091.19;;;41.27;13.84
61963;BME280;47927;42.646;23.096;2023-07-29T09:50:23;92095.78;;;42.29;12.89
61963;BME280;47927;42.646;23.096;2023-07-29T09:52:50;92092.06;;;41.89;12.88
61963;BME280;47927;42.646;23.096;2023-07-29T09:55:21;92091.47;;;42.08;11.42
61963;BME280;47927;42.646;23.096;2023-07-29T09:57:56;92084.50;;;41.63;13.27
61963;BME280;47927;42.646;23.096;2023-07-29T10:00:23;92088.22;;;42.37;12.40
61963;BME280;47927;42.646;23.096;2023-07-29T10:02:48;92086.47;;;42.15;12.94
61963;BME280;47927;42.646;23.096;2023-07-29T10:05:15;92081.38;;;42.01;12.11
61963;BME280;47927;42.646;23.096;2023-07-29T10:07:40;92079.78;;;40.71;12.54
61963;BME280;47927;42.646;23.096;2023-07-29T10:10:07;92072.53;;;40.33;13.55
61963;BME280;47927;42.646;23.096;2023-07-29T10:12:34;92074.50;;;41.23;12.50
61963;BME280;47927;42.646;23.096;2023-07-29T10:15:05;92073.16;;;40.16;13.24
61963;BME280;47927;42.646;23.096;2023-07-29T10:17:34;92076.28;;;38.80;14.04
61963;BME280;47927;42.646;23.096;2023-07-29T10:20:00;92063.28;;;38.12;14.57
61963;BME280;47927;42.646;23.096;2023-07-29T10:22:28;92061.72;;;37.88;14.91
61963;BME280;47927;42.646;23.096;2023-07-29T10:25:03;92053.28;;;37.62;15.42
61963;BME280;47927;42.646;23.096;2023-07-29T10:27:56;92058.88;;;38.01;14.05
61963;BME280;47927;42.646;23.096;2023-07-29T10:30:24;92058.09;;;37.85;13.77
61963;BME280;47927;42.646;23.096;2023-07-29T10:32:49;92061.25;;;37.60;15.37
61963;BME280;47927;42.646;23.096;2023-07-29T10:35:16;92052.72;;;37.28;15.00
61963;BME280;47927;42.646;23.096;2023-07-29T10:37:42;92057.63;;;36.24;16.35
61963;BME280;47927;42.646;23.096;2023-07-29T10:40:09;92041.88;;;36.23;16.36
61963;BME280;47927;42.646;23.096;2023-07-29T10:42:36;92044.78;;;35.91;17.00
61963;BME280;47927;42.646;23.096;2023-07-29T10:45:21;92046.47;;;35.80;16.71
61963;BME280;47927;42.646;23.096;2023-07-29T10:47:47;92041.09;;;36.36;16.57
61963;BME280;47927;42.646;23.096;2023-07-29T10:50:18;92028.28;;;36.78;15.93
61963;BME280;47927;42.646;23.096;2023-07-29T10:52:49;92034.06;;;37.32;15.58
61963;BME280;47927;42.646;23.096;2023-07-29T10:58:12;92029.81;;;36.66;16.80
61963;BME280;47927;42.646;23.096;2023-07-29T11:00:41;92038.38;;;37.48;15.19
61963;BME280;47927;42.646;23.096;2023-07-29T11:03:07;92025.75;;;37.66;15.20
61963;BME280;47927;42.646;23.096;2023-07-29T11:05:47;92021.78;;;37.75;14.33
61963;BME280;47927;42.646;23.096;2023-07-29T11:08:20;92020.91;;;37.80;14.27
61963;BME280;47927;42.646;23.096;2023-07-29T11:11:07;92029.25;;;36.88;14.25
61963;BME280;47927;42.646;23.096;2023-07-29T11:13:36;92011.22;;;35.94;15.16
61963;BME280;47927;42.646;23.096;2023-07-29T11:16:03;92019.22;;;36.55;16.05
61963;BME280;47927;42.646;23.096;2023-07-29T11:18:32;92020.25;;;36.10;14.76
61963;BME280;47927;42.646;23.096;2023-07-29T11:20:59;92021.13;;;36.67;15.51
61963;BME280;47927;42.646;23.096;2023-07-29T11:23:32;92009.56;;;36.95;15.44
61963;BME280;47927;42.646;23.096;2023-07-29T11:25:59;92020.19;;;37.07;15.44
61963;BME280;47927;42.646;23.096;2023-07-29T11:28:25;92026.69;;;36.83;15.06
61963;BME280;47927;42.646;23.096;2023-07-29T11:30:51;92020.56;;;36.90;15.27
61963;BME280;47927;42.646;23.096;2023-07-29T11:33:21;92017.56;;;35.22;15.61
61963;BME280;47927;42.646;23.096;2023-07-29T11:35:47;92012.34;;;35.11;16.44
61963;BME280;47927;42.646;23.096;2023-07-29T11:38:17;92013.88;;;36.07;15.19
61963;BME280;47927;42.646;23.096;2023-07-29T11:40:54;92008.81;;;36.24;15.03
61963;BME280;47927;42.646;23.096;2023-07-29T11:43:19;92011.31;;;35.88;15.65
61963;BME280;47927;42.646;23.096;2023-07-29T11:45:45;92018.69;;;35.67;16.53
61963;BME280;47927;42.646;23.096;2023-07-29T11:48:10;92002.31;;;34.79;16.43
61963;BME280;47927;42.646;23.096;2023-07-29T11:50:36;91999.47;;;34.58;16.87
61963;BME280;47927;42.646;23.096;2023-07-29T11:53:02;91999.81;;;34.03;18.94
61963;BME280;47927;42.646;23.096;2023-07-29T11:55:28;91989.78;;;33.98;17.00
61963;BME280;47927;42.646;23.096;2023-07-29T11:57:54;91987.84;;;34.31;17.03
61963;BME280;47927;42.646;23.096;2023-07-29T12:00:20;91995.50;;;35.05;17.80
61963;BME280;47927;42.646;23.096;2023-07-29T12:02:47;91994.19;;;35.46;16.05
61963;BME280;47927;42.646;23.096;2023-07-29T12:05:14;91987.19;;;35.64;17.28
61963;BME280;47927;42.646;23.096;2023-07-29T12:07:42;91982.56;;;35.11;16.57
61963;BME280;47927;42.646;23.096;2023-07-29T12:10:09;91980.41;;;33.05;18.79
61963;BME280;47927;42.646;23.096;2023-07-29T12:12:43;91987.75;;;33.67;18.12
61963;BME280;47927;42.646;23.096;2023-07-29T12:15:09;91975.84;;;34.26;18.43
61963;BME280;47927;42.646;23.096;2023-07-29T12:17:40;91972.16;;;34.43;18.67
61963;BME280;47927;42.646;23.096;2023-07-29T12:20:08;91977.81;;;34.13;19.04
61963;BME280;47927;42.646;23.096;2023-07-29T12:22:34;91982.47;;;33.93;19.06
61963;BME280;47927;42.646;23.096;2023-07-29T12:25:00;91977.84;;;33.75;20.23
61963;BME280;47927;42.646;23.096;2023-07-29T12:27:26;91982.22;;;33.78;19.95
61963;BME280;47927;42.646;23.096;2023-07-29T12:30:11;91970.56;;;34.21;19.94
61963;BME280;47927;42.646;23.096;2023-07-29T12:32:46;91974.28;;;34.18;18.64
61963;BME280;47927;42.646;23.096;2023-07-29T12:35:12;91968.75;;;34.10;19.13
61963;BME280;47927;42.646;23.096;2023-07-29T12:37:38;91963.13;;;34.08;19.04
61963;BME280;47927;42.646;23.096;2023-07-29T12:40:28;91970.16;;;34.30;19.66
61963;BME280;47927;42.646;23.096;2023-07-29T12:42:54;91968.50;;;34.27;18.64
61963;BME280;47927;42.646;23.096;2023-07-29T12:45:20;91975.50;;;34.49;19.40
61963;BME280;47927;42.646;23.096;2023-07-29T12:47:48;91969.31;;;34.22;18.21
61963;BME280;47927;42.646;23.096;2023-07-29T12:50:14;91982.28;;;33.91;17.71
61963;BME280;47927;42.646;23.096;2023-07-29T12:52:39;91978.31;;;34.11;18.47
61963;BME280;47927;42.646;23.096;2023-07-29T12:55:05;91971.75;;;34.52;18.42
61963;BME280;47927;42.646;23.096;2023-07-29T12:57:33;91971.19;;;34.27;18.75
61963;BME280;47927;42.646;23.096;2023-07-29T12:59:59;91967.75;;;34.26;18.17
61963;BME280;47927;42.646;23.096;2023-07-29T13:02:24;91967.66;;;34.78;18.22
61963;BME280;47927;42.646;23.096;2023-07-29T13:04:50;91966.59;;;34.54;17.41
61963;BME280;47927;42.646;23.096;2023-07-29T13:07:15;91960.63;;;32.72;20.05